Time;durP1;ratioP1;P1;durP2;ratioP2;P2;SDS_P1;SDS_P2;PMS_P1;PMS_P2;Temp;Humidity;BMP_temperature;BMP_pressure;BME280_temperature;BME280_humidity;BME280_pressure;Samples;Min_cycle;Max_cycle;Signal;HPM_P1;HPM_P2
2023/08/17 00:00:30;;;;;;;7.55;3.78;;;16.50;99.90;;;;;;5081317;28;20075;-57
2023/08/17 00:02:56;;;;;;;8.63;3.58;;;16.60;99.90;;;;;;5098972;28;20051;-57
2023/08/17 00:05:21;;;;;;;8.23;3.25;;;16.50;99.90;;;;;;5098071;28;20108;-56
2023/08/17 00:07:47;;;;;;;10.05;3.60;;;16.50;99.90;;;;;;5099717;28;20044;-57
2023/08/17 00:10:13;;;;;;;8.10;3.10;;;16.50;99.90;;;;;;5097373;28;20040;-57
2023/08/17 00:12:38;;;;;;;8.63;3.40;;;16.50;99.90;;;;;;5099830;28;20078;-57
2023/08/17 00:15:05;;;;;;;8.77;3.50;;;16.50;99.90;;;;;;5097931;28;20044;-57
2023/08/17 00:17:30;;;;;;;8.55;3.20;;;16.40;99.90;;;;;;5099471;28;20153;-57
2023/08/17 00:19:56;;;;;;;8.30;3.15;;;16.50;99.90;;;;;;5098130;28;20479;-56
2023/08/17 00:22:22;;;;;;;7.53;3.25;;;16.40;99.90;;;;;;5098431;28;20409;-57
2023/08/17 00:24:47;;;;;;;7.38;3.30;;;16.40;99.90;;;;;;5083655;28;20052;-56
2023/08/17 00:27:13;;;;;;;9.23;3.22;;;16.40;99.90;;;;;;5076992;28;20041;-56
2023/08/17 00:29:39;;;;;;;8.18;3.17;;;16.40;99.90;;;;;;5079111;28;20045;-57
2023/08/17 00:32:05;;;;;;;10.48;3.65;;;16.40;99.90;;;;;;5076749;28;20048;-56
2023/08/17 00:34:30;;;;;;;7.03;3.00;;;16.40;99.90;;;;;;5078525;28;20048;-57
2023/08/17 00:36:56;;;;;;;7.22;3.25;;;16.40;99.90;;;;;;5088745;28;20070;-56
2023/08/17 00:39:22;;;;;;;10.15;3.65;;;16.30;99.90;;;;;;5098420;28;20036;-57
2023/08/17 00:41:47;;;;;;;9.45;3.50;;;16.20;99.90;;;;;;5080665;28;20051;-56
2023/08/17 00:44:13;;;;;;;8.15;3.72;;;16.30;99.90;;;;;;5096877;28;20044;-57
2023/08/17 00:46:39;;;;;;;10.20;3.45;;;16.20;99.90;;;;;;5099546;28;20036;-57
2023/08/17 00:49:09;;;;;;;8.45;3.40;;;16.20;99.90;;;;;;5096376;28;20036;-57
2023/08/17 00:51:35;;;;;;;8.43;3.42;;;16.20;99.90;;;;;;5099051;28;20060;-56
2023/08/17 00:54:02;;;;;;;8.98;3.50;;;16.20;99.90;;;;;;5097250;28;20047;-56
2023/08/17 00:56:28;;;;;;;8.95;3.20;;;16.20;99.90;;;;;;5086473;28;20047;-57
2023/08/17 00:58:55;;;;;;;6.75;2.90;;;16.10;99.90;;;;;;5078110;28;20539;-56
2023/08/17 01:01:22;;;;;;;6.65;3.05;;;16.10;99.90;;;;;;5076643;28;20090;-56
2023/08/17 01:03:47;;;;;;;8.35;3.08;;;16.20;99.90;;;;;;5078803;28;20154;-57
2023/08/17 01:06:13;;;;;;;7.65;3.08;;;16.10;99.90;;;;;;5076684;28;20078;-57
2023/08/17 01:08:40;;;;;;;8.82;3.00;;;16.10;99.90;;;;;;5078312;28;20048;-58
2023/08/17 01:11:22;;;;;;;6.03;3.08;;;16.10;99.90;;;;;;5077359;28;20434;-59
2023/08/17 01:14:10;;;;;;;10.20;5.45;;;16.10;99.90;;;;;;5077437;28;20581;-57
2023/08/17 01:17:12;;;;;;;9.23;4.03;;;16.10;99.90;;;;;;5078773;28;20633;-57
2023/08/17 01:19:39;;;;;;;7.43;3.05;;;16.00;99.90;;;;;;5076687;28;20096;-56
2023/08/17 01:22:08;;;;;;;7.97;3.20;;;16.10;99.90;;;;;;5077983;28;20045;-57
2023/08/17 01:24:33;;;;;;;5.47;2.65;;;16.10;99.90;;;;;;5077778;28;20041;-56
2023/08/17 01:26:59;;;;;;;7.10;3.42;;;16.00;99.90;;;;;;5076566;28;20127;-57
2023/08/17 01:29:26;;;;;;;6.88;3.03;;;15.80;99.90;;;;;;5078519;28;20037;-56
2023/08/17 01:31:51;;;;;;;8.65;3.30;;;15.90;99.90;;;;;;5076538;28;20076;-57
2023/08/17 01:34:23;;;;;;;9.05;3.38;;;15.80;99.90;;;;;;5078034;28;20060;-57
2023/08/17 01:36:56;;;;;;;7.50;3.47;;;15.90;99.90;;;;;;5076768;28;20053;-57
2023/08/17 01:39:34;;;;;;;8.23;3.25;;;15.90;99.90;;;;;;5077160;28;20583;-57
2023/08/17 01:42:02;;;;;;;8.95;3.45;;;15.90;99.90;;;;;;5078531;28;20045;-57
2023/08/17 01:44:28;;;;;;;8.45;3.50;;;15.80;99.90;;;;;;5075981;28;20044;-57
2023/08/17 01:46:53;;;;;;;7.20;3.28;;;15.80;99.90;;;;;;5078356;28;20631;-56
2023/08/17 01:49:19;;;;;;;9.48;3.70;;;15.80;99.90;;;;;;5075765;28;20037;-56
2023/08/17 01:51:45;;;;;;;7.72;3.40;;;15.80;99.90;;;;;;5077913;28;20053;-57
2023/08/17 01:54:10;;;;;;;8.52;3.83;;;15.70;99.90;;;;;;5078424;28;20496;-56
2023/08/17 01:56:36;;;;;;;8.07;3.50;;;15.80;99.90;;;;;;5093709;28;20376;-57
2023/08/17 01:59:02;;;;;;;9.70;3.58;;;15.70;99.90;;;;;;5102187;28;20059;-56
2023/08/17 02:01:28;;;;;;;6.50;3.40;;;15.80;99.90;;;;;;5100081;28;20051;-56
2023/08/17 02:03:53;;;;;;;9.05;3.35;;;15.70;99.90;;;;;;5102196;28;20075;-57
2023/08/17 02:06:19;;;;;;;7.80;3.50;;;15.70;99.90;;;;;;5081938;28;20106;-57
2023/08/17 02:08:45;;;;;;;7.40;3.63;;;15.70;99.90;;;;;;5083426;28;20044;-56
2023/08/17 02:11:11;;;;;;;7.72;3.70;;;15.70;99.90;;;;;;5100501;28;20048;-56
2023/08/17 02:13:37;;;;;;;10.35;4.22;;;15.60;99.90;;;;;;5101378;28;20087;-56
2023/08/17 02:16:06;;;;;;;7.07;3.50;;;15.60;99.90;;;;;;5101801;28;20051;-56
2023/08/17 02:18:33;;;;;;;11.85;3.78;;;15.70;99.90;;;;;;5099759;28;20081;-57
2023/08/17 02:20:59;;;;;;;8.25;3.53;;;15.60;99.90;;;;;;5102058;28;20541;-57
2023/08/17 02:23:25;;;;;;;9.35;3.70;;;15.70;99.90;;;;;;5099759;28;20040;-56
2023/08/17 02:25:50;;;;;;;7.50;3.50;;;15.70;99.90;;;;;;5101533;28;20769;-57
2023/08/17 02:28:16;;;;;;;8.00;3.88;;;15.70;99.90;;;;;;5100242;28;20074;-56
2023/08/17 02:30:41;;;;;;;9.73;3.70;;;15.50;99.90;;;;;;5101079;28;20044;-57
2023/08/17 02:33:07;;;;;;;9.02;3.50;;;15.60;99.90;;;;;;5101561;28;20051;-56
2023/08/17 02:35:33;;;;;;;8.90;4.28;;;15.60;99.90;;;;;;5099513;28;20044;-57
2023/08/17 02:37:59;;;;;;;9.88;3.67;;;15.60;99.90;;;;;;5101288;28;20079;-57
2023/08/17 02:40:24;;;;;;;8.40;3.60;;;15.70;99.90;;;;;;5099014;28;20047;-56
2023/08/17 02:42:50;;;;;;;8.35;3.38;;;15.70;99.90;;;;;;5101406;28;20063;-57
2023/08/17 02:45:16;;;;;;;9.93;4.05;;;15.60;99.90;;;;;;5099746;28;20036;-57
2023/08/17 02:47:41;;;;;;;9.73;3.70;;;15.50;99.90;;;;;;5100880;28;20035;-57
2023/08/17 02:50:08;;;;;;;9.27;4.13;;;15.50;99.90;;;;;;5065589;28;20048;-56
2023/08/17 02:52:34;;;;;;;10.57;3.50;;;15.60;99.90;;;;;;5099678;28;20067;-57
2023/08/17 02:54:59;;;;;;;10.57;4.13;;;15.70;99.90;;;;;;5101613;28;20040;-56
2023/08/17 02:57:25;;;;;;;8.55;4.15;;;15.60;99.90;;;;;;5079423;28;20049;-56
2023/08/17 02:59:50;;;;;;;6.30;3.75;;;15.60;99.90;;;;;;5080907;28;20076;-57
2023/08/17 03:02:16;;;;;;;6.28;3.88;;;15.50;99.90;;;;;;5078930;28;20056;-56
2023/08/17 03:04:42;;;;;;;9.88;3.75;;;15.60;99.90;;;;;;5079999;28;20048;-57
2023/08/17 03:07:08;;;;;;;9.93;3.72;;;15.50;99.90;;;;;;5079333;28;20068;-57
2023/08/17 03:09:33;;;;;;;7.57;4.00;;;15.50;99.90;;;;;;5079220;28;20055;-57
2023/08/17 03:11:59;;;;;;;8.68;4.28;;;15.50;99.90;;;;;;5062739;28;20056;-56
2023/08/17 03:14:25;;;;;;;9.40;3.70;;;15.50;99.90;;;;;;5078539;28;20104;-57
2023/08/17 03:16:50;;;;;;;8.48;4.03;;;15.50;99.90;;;;;;5080672;28;20056;-57
2023/08/17 03:19:17;;;;;;;8.70;3.80;;;15.50;99.90;;;;;;5078280;28;20480;-56
2023/08/17 03:21:43;;;;;;;10.38;4.10;;;15.30;99.90;;;;;;5080238;28;20044;-57
2023/08/17 03:24:08;;;;;;;9.70;3.53;;;15.30;99.90;;;;;;5079113;28;20074;-56
2023/08/17 03:26:34;;;;;;;9.20;4.80;;;15.30;99.90;;;;;;5079225;28;20040;-56
2023/08/17 03:29:00;;;;;;;8.73;4.25;;;15.20;99.90;;;;;;5080487;28;20232;-56
2023/08/17 03:31:25;;;;;;;9.32;4.18;;;15.20;99.90;;;;;;5078068;28;20047;-57
2023/08/17 03:33:51;;;;;;;10.38;4.13;;;15.20;99.90;;;;;;5062415;28;20055;-56
2023/08/17 03:36:16;;;;;;;9.98;3.90;;;15.00;99.90;;;;;;5077873;28;20041;-56
2023/08/17 03:38:42;;;;;;;11.30;4.28;;;15.10;99.90;;;;;;5080111;28;20052;-57
2023/08/17 03:41:08;;;;;;;9.18;4.20;;;15.10;99.90;;;;;;5078825;28;20068;-56
2023/08/17 03:43:33;;;;;;;8.90;3.97;;;15.10;99.90;;;;;;5079348;28;20047;-57
2023/08/17 03:45:59;;;;;;;9.43;4.53;;;15.10;99.90;;;;;;5079889;28;20075;-56
2023/08/17 03:48:25;;;;;;;7.57;4.32;;;15.10;99.90;;;;;;5077543;28;20047;-57
2023/08/17 03:50:57;;;;;;;7.72;3.83;;;15.10;99.90;;;;;;5079918;28;20120;-56
2023/08/17 03:53:22;;;;;;;7.13;4.03;;;15.20;99.90;;;;;;5077716;28;20048;-57
2023/08/17 03:55:49;;;;;;;7.90;3.53;;;15.20;99.90;;;;;;5085819;28;20078;-57
2023/08/17 03:58:15;;;;;;;8.10;3.30;;;15.20;99.90;;;;;;5098038;28;20048;-55
2023/08/17 04:00:41;;;;;;;10.43;3.60;;;15.20;99.90;;;;;;5099136;28;20044;-56
2023/08/17 04:03:07;;;;;;;8.65;3.92;;;15.10;99.90;;;;;;5081386;28;20055;-56
2023/08/17 04:05:32;;;;;;;8.45;3.63;;;15.20;99.90;;;;;;5097907;28;20087;-56
2023/08/17 04:08:02;;;;;;;6.80;3.17;;;15.20;99.90;;;;;;5099570;28;20044;-57
2023/08/17 04:10:30;;;;;;;10.30;4.38;;;15.20;99.90;;;;;;5097738;28;20042;-56
2023/08/17 04:12:57;;;;;;;8.23;3.20;;;15.20;99.90;;;;;;5099695;28;20047;-58
2023/08/17 04:15:22;;;;;;;7.45;2.90;;;15.10;99.90;;;;;;5098325;28;20492;-56
2023/08/17 04:17:48;;;;;;;5.93;3.10;;;15.30;99.90;;;;;;5098704;28;20044;-57
2023/08/17 04:20:14;;;;;;;6.72;2.85;;;15.10;99.90;;;;;;5081071;28;20488;-61
2023/08/17 04:22:40;;;;;;;7.75;3.08;;;15.20;99.90;;;;;;5079620;28;20059;-57
2023/08/17 04:25:05;;;;;;;8.13;3.38;;;15.20;99.90;;;;;;5099849;28;20042;-57
2023/08/17 04:27:31;;;;;;;7.47;3.40;;;15.10;99.90;;;;;;5097238;28;20059;-57
2023/08/17 04:29:57;;;;;;;8.48;3.38;;;15.10;99.90;;;;;;5099081;28;20174;-57
2023/08/17 04:32:22;;;;;;;8.90;4.05;;;15.00;99.90;;;;;;5097831;28;20028;-56
2023/08/17 04:34:48;;;;;;;6.85;2.78;;;15.00;99.90;;;;;;5098589;28;20059;-57
2023/08/17 04:37:14;;;;;;;8.43;2.83;;;15.00;99.90;;;;;;5098752;28;20056;-56
2023/08/17 04:39:40;;;;;;;6.75;3.20;;;15.00;99.90;;;;;;5097649;28;20047;-57
2023/08/17 04:42:06;;;;;;;8.75;3.45;;;15.00;99.90;;;;;;5099528;28;20048;-57
2023/08/17 04:44:33;;;;;;;8.30;3.08;;;15.10;99.90;;;;;;5096901;28;20056;-57
2023/08/17 04:46:59;;;;;;;6.90;3.10;;;15.10;99.90;;;;;;5099199;28;20074;-57
2023/08/17 04:49:25;;;;;;;6.85;2.72;;;15.20;99.90;;;;;;5097231;28;20044;-57
2023/08/17 04:51:50;;;;;;;7.20;2.65;;;15.10;99.90;;;;;;5098750;28;20507;-57
2023/08/17 04:54:16;;;;;;;5.70;2.40;;;15.20;99.90;;;;;;5098228;28;20036;-55
2023/08/17 04:56:43;;;;;;;7.18;2.45;;;15.20;99.90;;;;;;5083892;28;20491;-56
2023/08/17 04:59:09;;;;;;;6.68;2.35;;;15.20;99.90;;;;;;5078317;28;20057;-56
2023/08/17 05:01:35;;;;;;;7.55;1.95;;;15.10;99.90;;;;;;5076682;28;20056;-56
2023/08/17 05:04:01;;;;;;;7.65;2.08;;;15.20;99.90;;;;;;5078790;28;20033;-57
2023/08/17 05:06:30;;;;;;;7.53;2.45;;;15.20;99.90;;;;;;5059016;28;20044;-57
2023/08/17 05:08:56;;;;;;;8.15;2.22;;;15.20;99.90;;;;;;5078178;28;20075;-56
2023/08/17 05:11:22;;;;;;;5.93;2.17;;;15.30;99.90;;;;;;5059962;28;20053;-55
2023/08/17 05:13:48;;;;;;;8.02;2.35;;;15.30;99.90;;;;;;5077025;28;20055;-56
2023/08/17 05:16:14;;;;;;;8.57;2.20;;;15.30;99.90;;;;;;5060652;28;20040;-56
2023/08/17 05:18:39;;;;;;;5.05;2.00;;;15.40;99.90;;;;;;5075722;28;20037;-56
2023/08/17 05:21:05;;;;;;;7.53;2.33;;;15.40;99.90;;;;;;5076610;28;20047;-56
2023/08/17 05:23:31;;;;;;;5.05;2.10;;;15.50;99.90;;;;;;5072142;28;20078;-55
2023/08/17 05:25:57;;;;;;;5.20;1.98;;;15.50;99.90;;;;;;5074446;28;20044;-56
2023/08/17 05:28:23;;;;;;;6.25;1.83;;;15.50;99.90;;;;;;5074894;28;20514;-54
2023/08/17 05:30:49;;;;;;;6.90;2.67;;;15.60;99.90;;;;;;5080156;28;20041;-54
2023/08/17 05:33:14;;;;;;;5.75;2.17;;;15.80;99.90;;;;;;5080983;28;20052;-54
2023/08/17 05:35:42;;;;;;;5.55;1.90;;;15.80;99.90;;;;;;5079059;28;20092;-54
2023/08/17 05:38:08;;;;;;;5.10;2.00;;;15.90;99.90;;;;;;5081165;28;20052;-56
2023/08/17 05:40:33;;;;;;;6.88;2.40;;;15.90;99.90;;;;;;5079054;28;20037;-55
2023/08/17 05:42:59;;;;;;;7.70;2.38;;;16.00;99.90;;;;;;5080606;28;20484;-55
2023/08/17 05:45:25;;;;;;;3.58;1.52;;;16.00;99.90;;;;;;5079156;28;20075;-53
2023/08/17 05:47:52;;;;;;;5.47;1.92;;;16.10;99.90;;;;;;5080220;28;20119;-55
2023/08/17 05:50:17;;;;;;;4.90;1.95;;;16.30;99.90;;;;;;5081321;28;20044;-54
2023/08/17 05:52:43;;;;;;;4.80;1.92;;;16.30;99.90;;;;;;5099518;28;20182;-55
2023/08/17 05:55:09;;;;;;;5.75;1.77;;;16.30;99.90;;;;;;5100489;28;20392;-55
2023/08/17 05:57:34;;;;;;;7.20;1.88;;;16.50;99.90;;;;;;5078147;28;20526;-55
2023/08/17 06:00:00;;;;;;;6.43;1.90;;;16.40;99.90;;;;;;5080284;28;20062;-55
2023/08/17 06:02:26;;;;;;;6.68;2.13;;;16.60;99.90;;;;;;5061658;28;20048;-55
2023/08/17 06:04:51;;;;;;;7.28;2.33;;;16.60;99.90;;;;;;5080219;28;20397;-55
2023/08/17 06:07:17;;;;;;;6.53;1.88;;;16.80;99.90;;;;;;5080764;28;20040;-54
2023/08/17 06:09:43;;;;;;;5.82;2.05;;;16.80;99.90;;;;;;5078411;28;20539;-54
2023/08/17 06:12:09;;;;;;;8.75;2.22;;;16.90;99.90;;;;;;5080806;28;20492;-55
2023/08/17 06:14:34;;;;;;;5.25;1.98;;;16.90;99.90;;;;;;5078731;28;20041;-55
2023/08/17 06:17:00;;;;;;;9.43;2.25;;;17.00;99.90;;;;;;5080710;28;20079;-55
2023/08/17 06:19:26;;;;;;;6.43;2.30;;;17.10;99.90;;;;;;5078750;28;20044;-55
2023/08/17 06:21:52;;;;;;;5.90;2.13;;;17.10;99.90;;;;;;5079853;28;20047;-55
2023/08/17 06:24:18;;;;;;;5.35;1.90;;;17.20;99.90;;;;;;5080275;28;20090;-54
2023/08/17 06:26:45;;;;;;;6.47;2.50;;;17.30;99.90;;;;;;5078986;28;20108;-57
2023/08/17 06:29:11;;;;;;;6.78;2.45;;;17.20;99.90;;;;;;5080978;28;20059;-55
2023/08/17 06:31:37;;;;;;;6.82;2.58;;;17.40;99.90;;;;;;5078324;28;20230;-55
2023/08/17 06:34:03;;;;;;;6.95;2.45;;;17.40;99.90;;;;;;5080377;28;20056;-55
2023/08/17 06:36:32;;;;;;;7.80;2.28;;;17.50;99.90;;;;;;5079293;28;20045;-53
2023/08/17 06:38:58;;;;;;;6.55;1.92;;;17.50;99.90;;;;;;5079962;28;20784;-55
2023/08/17 06:41:24;;;;;;;6.18;2.30;;;17.50;99.90;;;;;;5077104;28;20052;-54
2023/08/17 06:43:51;;;;;;;7.22;2.05;;;17.60;99.90;;;;;;5075034;28;20060;-56
2023/08/17 06:46:16;;;;;;;6.38;1.95;;;17.60;99.90;;;;;;5076906;28;20036;-55
2023/08/17 06:48:43;;;;;;;4.68;1.70;;;17.70;99.90;;;;;;5074818;28;20053;-55
2023/08/17 06:51:09;;;;;;;5.40;1.83;;;17.80;99.90;;;;;;5077434;28;20039;-56
2023/08/17 06:53:34;;;;;;;4.65;1.65;;;17.80;99.90;;;;;;5075226;28;20655;-53
2023/08/17 06:56:00;;;;;;;7.63;1.80;;;17.80;99.90;;;;;;5085125;28;20042;-55
2023/08/17 06:58:26;;;;;;;4.45;1.60;;;17.70;99.90;;;;;;5050049;28;20084;-54
2023/08/17 07:00:52;;;;;;;7.15;1.88;;;17.70;99.90;;;;;;5083284;28;20059;-55
2023/08/17 07:03:17;;;;;;;5.93;1.65;;;17.60;99.90;;;;;;5087161;28;20047;-55
2023/08/17 07:05:43;;;;;;;7.70;1.70;;;17.70;99.90;;;;;;5083511;28;20135;-55
2023/08/17 07:08:09;;;;;;;7.18;1.38;;;17.80;99.90;;;;;;5093594;28;20475;-55
2023/08/17 07:10:35;;;;;;;4.85;1.42;;;17.80;99.90;;;;;;5076511;28;20081;-56
2023/08/17 07:13:03;;;;;;;5.60;1.50;;;18.00;99.90;;;;;;5096855;28;20055;-55
2023/08/17 07:15:30;;;;;;;6.07;1.63;;;18.20;99.90;;;;;;5095959;28;20051;-55
2023/08/17 07:17:55;;;;;;;6.05;1.50;;;18.40;99.90;;;;;;5095666;28;20652;-55
2023/08/17 07:20:21;;;;;;;7.00;1.30;;;18.40;99.90;;;;;;5097099;28;20088;-54
2023/08/17 07:22:47;;;;;;;4.97;1.25;;;18.50;99.90;;;;;;5076108;28;20319;-56
2023/08/17 07:25:13;;;;;;;5.32;1.50;;;18.80;99.90;;;;;;5096954;28;20069;-55
2023/08/17 07:27:38;;;;;;;5.05;1.40;;;18.80;99.90;;;;;;5094904;28;20115;-55
2023/08/17 07:30:05;;;;;;;5.22;1.80;;;19.00;99.90;;;;;;5096314;28;20024;-56
2023/08/17 07:32:30;;;;;;;5.72;1.40;;;19.00;98.60;;;;;;5095258;28;20059;-54
2023/08/17 07:34:56;;;;;;;5.28;1.40;;;19.20;98.60;;;;;;5095160;28;20048;-55
2023/08/17 07:37:22;;;;;;;4.25;1.20;;;19.20;97.10;;;;;;5096534;28;20120;-55
2023/08/17 07:39:47;;;;;;;3.83;1.40;;;19.20;94.00;;;;;;5096156;28;20098;-55
2023/08/17 07:42:13;;;;;;;4.35;1.17;;;19.20;90.80;;;;;;5100089;28;20063;-57
2023/08/17 07:44:39;;;;;;;5.00;1.13;;;19.00;91.20;;;;;;5097529;28;20069;-56
2023/08/17 07:47:05;;;;;;;4.72;1.42;;;18.80;89.20;;;;;;5100437;28;20048;-56
2023/08/17 07:49:31;;;;;;;5.72;1.85;;;18.70;90.00;;;;;;5097704;28;20044;-56
2023/08/17 07:51:57;;;;;;;4.60;1.30;;;18.60;91.80;;;;;;5098547;28;20040;-56
2023/08/17 07:54:22;;;;;;;5.40;1.23;;;18.60;90.50;;;;;;5099435;28;20048;-56
2023/08/17 07:56:48;;;;;;;6.43;1.90;;;18.50;91.80;;;;;;5096973;28;20368;-56
2023/08/17 07:59:14;;;;;;;5.10;1.25;;;18.50;93.10;;;;;;5099537;28;20063;-56
2023/08/17 08:01:40;;;;;;;5.30;1.25;;;18.40;94.30;;;;;;5097347;28;20048;-56
2023/08/17 08:04:06;;;;;;;7.85;1.70;;;18.40;95.00;;;;;;5099594;28;20158;-57
2023/08/17 08:06:32;;;;;;;6.13;1.42;;;18.40;95.70;;;;;;5097718;28;20099;-57
2023/08/17 08:08:58;;;;;;;5.00;1.48;;;18.40;96.60;;;;;;5099112;28;20051;-57
2023/08/17 08:11:27;;;;;;;4.65;1.20;;;18.40;97.30;;;;;;5099078;28;20048;-56
2023/08/17 08:13:53;;;;;;;5.60;1.30;;;18.30;91.80;;;;;;5083094;28;20097;-57
2023/08/17 08:16:18;;;;;;;3.80;1.20;;;18.30;92.10;;;;;;5079476;28;20040;-57
2023/08/17 08:18:44;;;;;;;5.32;1.42;;;18.30;92.50;;;;;;5079437;28;20403;-57
2023/08/17 08:21:10;;;;;;;4.50;1.30;;;18.40;93.60;;;;;;5092208;28;20142;-57
2023/08/17 08:23:35;;;;;;;6.72;1.30;;;18.30;94.90;;;;;;5097456;28;20040;-57
2023/08/17 08:26:01;;;;;;;5.22;1.45;;;18.40;95.00;;;;;;5098408;28;20214;-58
2023/08/17 08:28:27;;;;;;;4.32;1.10;;;18.40;94.40;;;;;;5098315;28;20067;-57
2023/08/17 08:30:53;;;;;;;6.32;1.33;;;18.40;93.10;;;;;;5097487;28;20054;-57
2023/08/17 08:33:18;;;;;;;4.68;1.30;;;18.50;91.80;;;;;;5097442;28;20040;-57
2023/08/17 08:35:45;;;;;;;3.85;1.30;;;18.50;91.80;;;;;;5086662;28;20102;-57
2023/08/17 08:38:11;;;;;;;5.65;1.92;;;18.40;91.60;;;;;;5087716;28;20051;-57
2023/08/17 08:40:40;;;;;;;6.20;1.15;;;18.50;92.50;;;;;;5069298;28;20048;-57
2023/08/17 08:43:09;;;;;;;6.22;1.30;;;18.50;91.60;;;;;;5088227;28;20079;-57
2023/08/17 08:45:37;;;;;;;4.15;1.20;;;18.70;92.50;;;;;;5086707;28;20044;-57
2023/08/17 08:48:05;;;;;;;5.72;1.15;;;18.80;89.60;;;;;;5094058;28;20036;-57
2023/08/17 08:50:33;;;;;;;5.25;1.30;;;18.80;88.50;;;;;;5098821;28;20495;-57
2023/08/17 08:53:00;;;;;;;4.45;1.27;;;18.70;89.80;;;;;;5096599;28;20066;-57
2023/08/17 08:55:30;;;;;;;5.18;1.50;;;18.60;87.30;;;;;;5095941;28;20036;-58
2023/08/17 08:57:56;;;;;;;4.13;1.30;;;18.70;87.70;;;;;;5076548;28;20044;-57
2023/08/17 09:00:24;;;;;;;3.83;1.55;;;18.80;89.10;;;;;;5077748;28;20057;-57
2023/08/17 09:02:51;;;;;;;5.38;2.30;;;18.80;89.00;;;;;;5077108;28;20063;-57
2023/08/17 09:05:17;;;;;;;5.78;1.23;;;18.90;86.90;;;;;;5076403;28;20045;-58
2023/08/17 09:07:43;;;;;;;4.53;1.38;;;19.10;87.30;;;;;;5078428;28;20047;-57
2023/08/17 09:10:10;;;;;;;5.25;1.27;;;19.10;84.50;;;;;;5076237;28;20032;-58
2023/08/17 09:12:36;;;;;;;5.22;1.50;;;19.20;85.80;;;;;;5078363;28;20071;-57
2023/08/17 09:15:02;;;;;;;4.00;1.17;;;19.20;86.00;;;;;;5076848;28;20041;-57
2023/08/17 09:17:28;;;;;;;4.32;1.25;;;19.10;86.00;;;;;;5077182;28;20048;-58
2023/08/17 09:19:54;;;;;;;5.10;1.10;;;19.10;85.10;;;;;;5077125;28;20044;-58
2023/08/17 09:22:37;;;;;;;4.97;1.63;;;19.20;86.30;;;;;;5076493;28;20041;-56
2023/08/17 09:25:03;;;;;;;4.53;1.42;;;19.20;88.20;;;;;;5060091;28;20052;-58
2023/08/17 09:27:28;;;;;;;4.75;1.30;;;19.20;88.10;;;;;;5075371;28;20052;-58
2023/08/17 09:30:04;;;;;;;5.13;1.40;;;19.30;84.50;;;;;;5077401;28;20056;-58
2023/08/17 09:32:33;;;;;;;2.92;1.15;;;19.40;83.40;;;;;;5076865;28;20036;-58
2023/08/17 09:35:04;;;;;;;3.28;1.20;;;19.40;79.40;;;;;;5076545;28;20059;-56
2023/08/17 09:37:30;;;;;;;6.85;1.65;;;19.40;78.50;;;;;;5078008;28;20067;-58
2023/08/17 09:39:55;;;;;;;4.60;1.30;;;19.50;74.90;;;;;;5076072;28;20040;-58
2023/08/17 09:42:22;;;;;;;4.93;1.27;;;19.80;76.20;;;;;;5078232;28;20041;-57
2023/08/17 09:44:49;;;;;;;4.32;1.20;;;20.00;74.50;;;;;;5067693;28;20036;-58
2023/08/17 09:47:17;;;;;;;6.60;1.30;;;20.00;75.90;;;;;;5069805;28;20522;-58
2023/08/17 09:49:48;;;;;;;4.32;1.30;;;20.20;74.80;;;;;;5085042;28;20043;-59
2023/08/17 09:52:14;;;;;;;4.90;1.23;;;20.20;72.60;;;;;;5093533;28;20410;-59
2023/08/17 09:54:41;;;;;;;3.72;1.20;;;20.20;67.70;;;;;;5097808;28;20349;-60
2023/08/17 09:57:07;;;;;;;4.85;1.60;;;20.30;69.70;;;;;;5081005;28;20083;-60
2023/08/17 09:59:33;;;;;;;5.95;1.30;;;20.40;71.00;;;;;;5088231;28;20095;-60
2023/08/17 10:02:00;;;;;;;5.20;1.30;;;20.40;68.80;;;;;;5084999;28;20048;-60
2023/08/17 10:04:27;;;;;;;4.63;1.45;;;20.40;65.00;;;;;;5086641;28;20083;-61
2023/08/17 10:06:59;;;;;;;5.47;1.40;;;20.40;65.40;;;;;;5087219;28;20072;-60
2023/08/17 10:09:31;;;;;;;7.95;1.60;;;20.50;66.90;;;;;;5086202;28;20051;-60
2023/08/17 10:12:02;;;;;;;7.95;1.80;;;20.50;68.10;;;;;;5092899;28;20040;-60
2023/08/17 10:14:36;;;;;;;5.85;1.40;;;20.70;64.90;;;;;;5078085;28;20055;-60
2023/08/17 10:17:13;;;;;;;4.93;1.30;;;20.70;63.30;;;;;;5101295;28;20044;-59
2023/08/17 10:19:52;;;;;;;6.57;1.60;;;20.70;57.60;;;;;;5100414;28;20062;-63
2023/08/17 10:22:27;;;;;;;5.72;1.30;;;20.70;53.70;;;;;;5095101;28;20041;-60
2023/08/17 10:24:54;;;;;;;7.72;1.40;;;20.70;55.60;;;;;;5087365;28;20044;-61
2023/08/17 10:27:21;;;;;;;7.68;1.33;;;20.90;59.90;;;;;;5078351;28;20115;-60
2023/08/17 10:29:47;;;;;;;4.72;1.30;;;20.80;58.00;;;;;;5080632;28;20051;-61
2023/08/17 10:32:14;;;;;;;5.25;1.40;;;20.90;62.20;;;;;;5078849;28;20051;-60
2023/08/17 10:34:40;;;;;;;4.78;1.38;;;21.00;63.80;;;;;;5080199;28;20101;-60
2023/08/17 10:37:07;;;;;;;5.65;1.60;;;20.90;60.90;;;;;;5080300;28;20037;-60
2023/08/17 10:39:34;;;;;;;6.05;1.70;;;20.80;62.40;;;;;;5079144;28;20036;-61
2023/08/17 10:42:00;;;;;;;8.82;2.10;;;20.70;62.20;;;;;;5081279;28;20123;-61
2023/08/17 10:44:48;;;;;;;4.45;1.60;;;20.60;63.50;;;;;;5078698;28;20049;-60
2023/08/17 10:47:25;;;;;;;5.20;1.52;;;20.50;66.20;;;;;;5080448;28;20532;-60
2023/08/17 10:49:55;;;;;;;4.90;1.70;;;20.40;68.30;;;;;;5079896;28;20117;-60
2023/08/17 10:52:33;;;;;;;6.90;1.83;;;20.40;67.40;;;;;;5078802;28;20041;-60
2023/08/17 10:55:00;;;;;;;5.22;1.30;;;20.40;71.00;;;;;;5080576;28;20056;-60
2023/08/17 10:57:32;;;;;;;9.10;1.73;;;20.30;70.10;;;;;;5098260;28;20044;-60
2023/08/17 11:00:16;;;;;;;9.15;2.20;;;20.30;71.50;;;;;;5100818;28;20116;-61
2023/08/17 11:02:53;;;;;;;5.88;1.25;;;20.30;72.00;;;;;;5100163;28;20056;-57
2023/08/17 11:05:40;;;;;;;5.03;1.48;;;20.40;73.10;;;;;;5098385;28;20107;-58
2023/08/17 11:08:10;;;;;;;5.32;1.45;;;20.40;72.90;;;;;;5100383;28;20047;-58
2023/08/17 11:10:37;;;;;;;5.45;1.50;;;20.50;73.30;;;;;;5098892;28;20036;-58
2023/08/17 11:13:04;;;;;;;6.53;1.75;;;20.60;69.40;;;;;;5099535;28;20096;-58
2023/08/17 11:15:42;;;;;;;5.65;1.45;;;20.60;72.10;;;;;;5099414;28;20044;-57
2023/08/17 11:18:08;;;;;;;6.32;1.67;;;20.70;70.70;;;;;;5098483;28;20066;-58
2023/08/17 11:20:35;;;;;;;7.68;1.77;;;20.60;70.90;;;;;;5100399;28;20048;-58
2023/08/17 11:23:01;;;;;;;6.65;1.77;;;20.40;70.70;;;;;;5079648;28;20099;-57
2023/08/17 11:25:27;;;;;;;7.20;1.40;;;20.60;72.30;;;;;;5100263;28;20083;-55
2023/08/17 11:27:54;;;;;;;5.55;1.27;;;20.90;73.80;;;;;;5097138;28;20037;-58
2023/08/17 11:30:22;;;;;;;7.05;1.92;;;20.90;70.20;;;;;;5080927;28;20037;-58
2023/08/17 11:32:50;;;;;;;6.55;1.85;;;21.10;67.90;;;;;;5099754;28;20066;-57
2023/08/17 11:35:16;;;;;;;6.15;1.58;;;21.00;64.10;;;;;;5098589;28;20043;-57
2023/08/17 11:37:43;;;;;;;6.45;1.60;;;21.00;68.70;;;;;;5100748;28;20032;-58
2023/08/17 11:40:13;;;;;;;5.63;1.65;;;21.10;69.80;;;;;;5098336;28;20052;-58
2023/08/17 11:42:39;;;;;;;6.95;1.88;;;21.10;70.20;;;;;;5099699;28;20040;-58
2023/08/17 11:45:09;;;;;;;7.95;1.70;;;21.00;71.50;;;;;;5098400;28;20036;-58
2023/08/17 11:47:35;;;;;;;6.20;2.00;;;21.00;70.20;;;;;;5099208;28;20044;-58
2023/08/17 11:50:02;;;;;;;7.22;1.90;;;20.70;70.30;;;;;;5098817;28;20048;-57
2023/08/17 11:52:29;;;;;;;7.68;1.70;;;20.60;72.50;;;;;;5079853;28;20048;-58
2023/08/17 11:54:58;;;;;;;5.93;1.77;;;20.70;75.30;;;;;;5100334;28;20047;-58
2023/08/17 11:57:24;;;;;;;6.85;1.73;;;20.60;77.30;;;;;;5078269;28;20036;-58
2023/08/17 11:59:56;;;;;;;7.18;1.88;;;20.70;75.70;;;;;;5079194;28;20059;-58
2023/08/17 12:02:23;;;;;;;6.43;1.73;;;20.70;73.30;;;;;;5095010;28;20036;-57
2023/08/17 12:04:50;;;;;;;8.45;1.88;;;20.80;72.40;;;;;;5086723;28;20040;-58
2023/08/17 12:07:19;;;;;;;7.78;2.08;;;20.90;74.40;;;;;;5089404;28;20044;-57
2023/08/17 12:09:49;;;;;;;6.43;1.80;;;20.90;73.90;;;;;;5090744;28;20051;-58
2023/08/17 12:12:22;;;;;;;7.70;2.15;;;20.90;75.40;;;;;;5099672;28;20043;-59
2023/08/17 12:14:48;;;;;;;7.25;1.85;;;20.90;74.30;;;;;;5079398;28;20480;-60
2023/08/17 12:17:18;;;;;;;6.07;1.73;;;20.80;75.80;;;;;;5099226;28;20051;-57
2023/08/17 12:19:48;;;;;;;6.93;2.00;;;20.90;75.50;;;;;;5098221;28;20044;-58
2023/08/17 12:22:14;;;;;;;7.38;2.20;;;20.80;77.90;;;;;;5097445;28;20044;-60
2023/08/17 12:24:39;;;;;;;6.50;1.90;;;20.80;72.30;;;;;;5099553;28;20036;-58
2023/08/17 12:27:08;;;;;;;6.65;2.42;;;20.90;74.00;;;;;;5097056;28;20116;-58
2023/08/17 12:29:45;;;;;;;8.07;1.80;;;21.00;74.40;;;;;;5099234;28;20493;-58
2023/08/17 12:32:11;;;;;;;5.53;1.83;;;21.10;75.50;;;;;;5097668;28;20040;-57
2023/08/17 12:34:36;;;;;;;6.72;2.10;;;21.20;74.40;;;;;;5098835;28;20131;-58
2023/08/17 12:37:02;;;;;;;9.32;2.00;;;21.20;74.70;;;;;;5098862;28;20044;-58
2023/08/17 12:39:27;;;;;;;8.15;2.63;;;21.40;74.00;;;;;;5097076;28;20048;-58
2023/08/17 12:41:53;;;;;;;7.82;2.50;;;21.50;74.30;;;;;;5099091;28;20119;-58
2023/08/17 12:44:19;;;;;;;8.40;2.35;;;21.60;69.30;;;;;;5096981;28;20070;-58